ASN logo
ASN Wikibase Occurrence # 193673
Last updated: 23 March 2017
This information is added by users of ASN. Neither ASN nor the Flight Safety Foundation are responsible for the completeness or correctness of this information. If you feel this information is incomplete or incorrect, you can submit corrected information.

Date:17-FEB-2017
Time:ca 11:40
Type:Silhouette image of generic B735 model; specific model in this crash may look slightly different
Boeing 737-524 (WL)
Owner/operator:VIM Airlines
Registration: VP-BVS
C/n / msn: 28915/2993
Fatalities:Fatalities: 0 / Occupants: 47
Other fatalities:0
Airplane damage: Minor
Location:Riga International Airport (RIX/EVRA) -   Latvia
Phase: Taxi
Nature:International Non Scheduled Passenger
Departure airport:Riga International Airport (RIX/EVRA)
Destination airport:Ufa Airport (UFA/UWUU)
Narrative:
A Boeing 737-500, operated by VIM Airlines was damaged just prior to takeoff from Riga International Airport, Latvia.
The aircraft skidded off the runway, causing damage to the nr.1 engine air inlet cowl. The aircraft was able to taxi back to the apron. The aircraft carried the Togliatti Lada ice hockey club team on a flight to Ufa, Russia.

Weather about the time of the incident (11:40 LT / 09:40Z):
EVRA 170950Z 23007KT 210V270 8000 -RA OVC004 03/03 Q1011 R18/290195 NOSIG
EVRA 170920Z 23008KT 6000 -RA OVC004 03/03 Q1011 R18/290195 NOSIG
EVRA 170850Z 23008KT 9000 -RA OVC005 03/03 Q1011 R18/290195 NOSIG

Sources:

http://www.diena.lv/raksts/latvija/riga/rigas-lidosta-uz-skrejcela-saslidejusi-lidmasina-kas-veda-khl-klubu-_lada_-14166232
http://www.aviofoto.lv/?c=bilde&id=23598
http://www.leta.lv/eng/home/important/133C5E91-8AF5-2280-DF6C-A0B7D8049D2D/?utm_source=dlvr.it&utm_medium=twitter

Great time in Riga🚀🚨✈️🛫

A post shared by Glebа (@_gleba_) on


Revision history:

Date/timeContributorUpdates
17-Feb-2017 15:59 harro Added
17-Feb-2017 16:09 harro Updated [Phase, Narrative]
17-Feb-2017 16:12 harro Updated [Destination airport, Source, Narrative]
17-Feb-2017 16:43 harro Updated [Time, Other fatalities, Narrative]
17-Feb-2017 19:16 94.76.51.168 Updated [Narrative]
17-Feb-2017 19:16 harro Updated [Phase, Destination airport, Narrative]

Corrections or additions? ... Edit this accident description